sensor_id;sensor_type;location;lat;lon;timestamp;P1;durP1;ratioP1;P2;durP2;ratioP2
15480;SDS011;7842;50.904;6.670;2023-04-01T00:00:29;2.43;;;1.10;;
15480;SDS011;7842;50.904;6.670;2023-04-01T00:02:56;1.60;;;0.63;;
15480;SDS011;7842;50.904;6.670;2023-04-01T00:05:22;1.20;;;0.63;;
15480;SDS011;7842;50.904;6.670;2023-04-01T00:07:49;1.27;;;0.50;;
15480;SDS011;7842;50.904;6.670;2023-04-01T00:10:15;3.60;;;0.90;;
15480;SDS011;7842;50.904;6.670;2023-04-01T00:12:41;1.92;;;0.60;;
15480;SDS011;7842;50.904;6.670;2023-04-01T00:15:08;1.00;;;0.60;;
15480;SDS011;7842;50.904;6.670;2023-04-01T00:17:35;2.30;;;0.70;;
15480;SDS011;7842;50.904;6.670;2023-04-01T00:20:01;1.63;;;0.60;;
15480;SDS011;7842;50.904;6.670;2023-04-01T00:22:28;1.42;;;0.68;;
15480;SDS011;7842;50.904;6.670;2023-04-01T00:24:54;1.00;;;0.60;;
15480;SDS011;7842;50.904;6.670;2023-04-01T00:27:20;2.55;;;0.85;;
15480;SDS011;7842;50.904;6.670;2023-04-01T00:29:46;1.70;;;0.65;;
15480;SDS011;7842;50.904;6.670;2023-04-01T00:32:13;1.98;;;0.63;;
15480;SDS011;7842;50.904;6.670;2023-04-01T00:34:39;1.20;;;0.60;;
15480;SDS011;7842;50.904;6.670;2023-04-01T00:37:06;1.52;;;0.45;;
15480;SDS011;7842;50.904;6.670;2023-04-01T00:39:33;2.20;;;0.68;;
15480;SDS011;7842;50.904;6.670;2023-04-01T00:41:59;0.90;;;0.57;;
15480;SDS011;7842;50.904;6.670;2023-04-01T00:44:30;1.50;;;0.60;;
15480;SDS011;7842;50.904;6.670;2023-04-01T00:46:58;1.45;;;0.50;;
15480;SDS011;7842;50.904;6.670;2023-04-01T00:49:36;1.27;;;0.55;;
15480;SDS011;7842;50.904;6.670;2023-04-01T00:52:05;1.08;;;0.50;;
15480;SDS011;7842;50.904;6.670;2023-04-01T00:54:32;0.70;;;0.40;;
15480;SDS011;7842;50.904;6.670;2023-04-01T00:57:00;0.93;;;0.50;;
15480;SDS011;7842;50.904;6.670;2023-04-01T00:59:37;1.52;;;0.50;;
15480;SDS011;7842;50.904;6.670;2023-04-01T01:02:05;0.88;;;0.50;;
15480;SDS011;7842;50.904;6.670;2023-04-01T01:04:34;1.38;;;0.60;;
15480;SDS011;7842;50.904;6.670;2023-04-01T01:12:39;1.50;;;0.50;;
15480;SDS011;7842;50.904;6.670;2023-04-01T01:29:16;1.10;;;0.50;;
15480;SDS011;7842;50.904;6.670;2023-04-01T01:31:45;1.77;;;0.50;;
15480;SDS011;7842;50.904;6.670;2023-04-01T01:36:53;1.08;;;0.50;;
15480;SDS011;7842;50.904;6.670;2023-04-01T01:39:24;1.40;;;0.50;;
15480;SDS011;7842;50.904;6.670;2023-04-01T01:41:52;1.20;;;0.50;;
15480;SDS011;7842;50.904;6.670;2023-04-01T01:44:20;0.85;;;0.52;;
15480;SDS011;7842;50.904;6.670;2023-04-01T01:46:47;0.80;;;0.50;;
15480;SDS011;7842;50.904;6.670;2023-04-01T01:49:13;1.30;;;0.60;;
15480;SDS011;7842;50.904;6.670;2023-04-01T01:51:40;1.08;;;0.55;;
15480;SDS011;7842;50.904;6.670;2023-04-01T01:54:11;1.00;;;0.50;;
15480;SDS011;7842;50.904;6.670;2023-04-01T01:56:47;0.57;;;0.40;;
15480;SDS011;7842;50.904;6.670;2023-04-01T01:59:16;1.13;;;0.70;;
15480;SDS011;7842;50.904;6.670;2023-04-01T02:01:46;0.95;;;0.40;;
15480;SDS011;7842;50.904;6.670;2023-04-01T02:04:14;0.43;;;0.30;;
15480;SDS011;7842;50.904;6.670;2023-04-01T02:06:43;0.50;;;0.40;;
15480;SDS011;7842;50.904;6.670;2023-04-01T02:09:11;0.70;;;0.40;;
15480;SDS011;7842;50.904;6.670;2023-04-01T02:11:51;1.20;;;0.32;;
15480;SDS011;7842;50.904;6.670;2023-04-01T02:14:18;0.82;;;0.40;;
15480;SDS011;7842;50.904;6.670;2023-04-01T02:16:48;1.17;;;0.38;;
15480;SDS011;7842;50.904;6.670;2023-04-01T02:19:15;0.38;;;0.32;;
15480;SDS011;7842;50.904;6.670;2023-04-01T02:21:47;1.00;;;0.30;;
15480;SDS011;7842;50.904;6.670;2023-04-01T02:24:17;0.60;;;0.30;;
15480;SDS011;7842;50.904;6.670;2023-04-01T02:26:46;0.73;;;0.32;;
15480;SDS011;7842;50.904;6.670;2023-04-01T02:29:12;0.47;;;0.30;;
15480;SDS011;7842;50.904;6.670;2023-04-01T02:31:38;1.55;;;0.40;;
15480;SDS011;7842;50.904;6.670;2023-04-01T02:34:05;0.68;;;0.30;;
15480;SDS011;7842;50.904;6.670;2023-04-01T02:36:31;0.50;;;0.30;;
15480;SDS011;7842;50.904;6.670;2023-04-01T02:38:57;0.40;;;0.30;;
15480;SDS011;7842;50.904;6.670;2023-04-01T02:41:27;0.90;;;0.30;;
15480;SDS011;7842;50.904;6.670;2023-04-01T02:43:53;0.93;;;0.40;;
15480;SDS011;7842;50.904;6.670;2023-04-01T02:46:19;1.40;;;0.30;;
15480;SDS011;7842;50.904;6.670;2023-04-01T02:48:45;0.70;;;0.30;;
15480;SDS011;7842;50.904;6.670;2023-04-01T02:51:11;0.90;;;0.30;;
15480;SDS011;7842;50.904;6.670;2023-04-01T02:53:37;1.02;;;0.30;;
15480;SDS011;7842;50.904;6.670;2023-04-01T02:56:03;1.40;;;0.50;;
15480;SDS011;7842;50.904;6.670;2023-04-01T02:58:30;0.90;;;0.40;;
15480;SDS011;7842;50.904;6.670;2023-04-01T03:00:55;1.10;;;0.30;;
15480;SDS011;7842;50.904;6.670;2023-04-01T03:03:21;0.30;;;0.30;;
15480;SDS011;7842;50.904;6.670;2023-04-01T03:05:47;0.50;;;0.40;;
15480;SDS011;7842;50.904;6.670;2023-04-01T03:08:13;0.50;;;0.40;;
15480;SDS011;7842;50.904;6.670;2023-04-01T03:10:39;0.73;;;0.40;;
15480;SDS011;7842;50.904;6.670;2023-04-01T03:13:05;0.68;;;0.40;;
15480;SDS011;7842;50.904;6.670;2023-04-01T03:15:31;0.93;;;0.43;;
15480;SDS011;7842;50.904;6.670;2023-04-01T03:17:57;0.60;;;0.35;;
15480;SDS011;7842;50.904;6.670;2023-04-01T03:20:23;0.60;;;0.40;;
15480;SDS011;7842;50.904;6.670;2023-04-01T03:22:49;0.55;;;0.35;;
15480;SDS011;7842;50.904;6.670;2023-04-01T03:25:15;1.10;;;0.40;;
15480;SDS011;7842;50.904;6.670;2023-04-01T03:27:41;0.97;;;0.40;;
15480;SDS011;7842;50.904;6.670;2023-04-01T03:30:07;1.67;;;0.43;;
15480;SDS011;7842;50.904;6.670;2023-04-01T03:32:34;0.77;;;0.43;;
15480;SDS011;7842;50.904;6.670;2023-04-01T03:35:00;0.50;;;0.30;;
15480;SDS011;7842;50.904;6.670;2023-04-01T03:37:25;0.70;;;0.40;;
15480;SDS011;7842;50.904;6.670;2023-04-01T03:39:52;0.50;;;0.40;;
15480;SDS011;7842;50.904;6.670;2023-04-01T03:42:17;0.60;;;0.40;;
15480;SDS011;7842;50.904;6.670;2023-04-01T03:44:44;1.08;;;0.52;;
15480;SDS011;7842;50.904;6.670;2023-04-01T03:47:10;0.50;;;0.40;;
15480;SDS011;7842;50.904;6.670;2023-04-01T03:49:35;1.03;;;0.47;;
15480;SDS011;7842;50.904;6.670;2023-04-01T03:52:01;1.15;;;0.40;;
15480;SDS011;7842;50.904;6.670;2023-04-01T03:54:27;0.40;;;0.40;;
15480;SDS011;7842;50.904;6.670;2023-04-01T03:56:53;0.60;;;0.40;;
15480;SDS011;7842;50.904;6.670;2023-04-01T03:59:20;0.40;;;0.40;;
15480;SDS011;7842;50.904;6.670;2023-04-01T04:01:46;0.57;;;0.40;;
15480;SDS011;7842;50.904;6.670;2023-04-01T04:04:12;0.30;;;0.30;;
15480;SDS011;7842;50.904;6.670;2023-04-01T04:06:39;0.68;;;0.40;;
15480;SDS011;7842;50.904;6.670;2023-04-01T04:09:05;0.50;;;0.30;;
15480;SDS011;7842;50.904;6.670;2023-04-01T04:11:31;0.60;;;0.40;;
15480;SDS011;7842;50.904;6.670;2023-04-01T04:13:58;0.88;;;0.30;;
15480;SDS011;7842;50.904;6.670;2023-04-01T04:16:24;0.90;;;0.38;;
15480;SDS011;7842;50.904;6.670;2023-04-01T04:18:50;0.40;;;0.30;;
15480;SDS011;7842;50.904;6.670;2023-04-01T04:21:16;0.30;;;0.30;;
15480;SDS011;7842;50.904;6.670;2023-04-01T04:23:42;0.55;;;0.40;;
15480;SDS011;7842;50.904;6.670;2023-04-01T04:26:12;0.35;;;0.35;;
15480;SDS011;7842;50.904;6.670;2023-04-01T04:28:39;0.55;;;0.40;;
15480;SDS011;7842;50.904;6.670;2023-04-01T04:31:05;0.90;;;0.40;;
15480;SDS011;7842;50.904;6.670;2023-04-01T04:33:32;1.00;;;0.40;;
15480;SDS011;7842;50.904;6.670;2023-04-01T04:35:58;0.50;;;0.30;;
15480;SDS011;7842;50.904;6.670;2023-04-01T04:38:24;0.30;;;0.30;;
15480;SDS011;7842;50.904;6.670;2023-04-01T04:40:50;1.00;;;0.50;;
15480;SDS011;7842;50.904;6.670;2023-04-01T04:43:17;0.70;;;0.40;;
15480;SDS011;7842;50.904;6.670;2023-04-01T04:45:43;0.70;;;0.40;;
15480;SDS011;7842;50.904;6.670;2023-04-01T04:48:10;0.82;;;0.40;;
15480;SDS011;7842;50.904;6.670;2023-04-01T04:50:46;0.47;;;0.40;;
15480;SDS011;7842;50.904;6.670;2023-04-01T04:53:16;0.77;;;0.40;;
15480;SDS011;7842;50.904;6.670;2023-04-01T04:55:43;0.90;;;0.40;;
15480;SDS011;7842;50.904;6.670;2023-04-01T04:58:10;0.40;;;0.40;;
15480;SDS011;7842;50.904;6.670;2023-04-01T05:00:35;0.47;;;0.40;;
15480;SDS011;7842;50.904;6.670;2023-04-01T05:03:01;1.00;;;0.50;;
15480;SDS011;7842;50.904;6.670;2023-04-01T05:05:27;0.60;;;0.40;;
15480;SDS011;7842;50.904;6.670;2023-04-01T05:07:53;0.90;;;0.50;;
15480;SDS011;7842;50.904;6.670;2023-04-01T05:10:19;0.50;;;0.43;;
15480;SDS011;7842;50.904;6.670;2023-04-01T05:12:46;0.50;;;0.50;;
15480;SDS011;7842;50.904;6.670;2023-04-01T05:15:12;1.27;;;0.50;;
15480;SDS011;7842;50.904;6.670;2023-04-01T05:17:37;0.40;;;0.40;;
15480;SDS011;7842;50.904;6.670;2023-04-01T05:20:03;0.70;;;0.50;;
15480;SDS011;7842;50.904;6.670;2023-04-01T05:22:30;0.50;;;0.40;;
15480;SDS011;7842;50.904;6.670;2023-04-01T05:24:55;0.88;;;0.50;;
15480;SDS011;7842;50.904;6.670;2023-04-01T05:27:21;0.45;;;0.45;;
15480;SDS011;7842;50.904;6.670;2023-04-01T05:29:47;1.05;;;0.57;;
15480;SDS011;7842;50.904;6.670;2023-04-01T05:32:13;0.60;;;0.60;;
15480;SDS011;7842;50.904;6.670;2023-04-01T05:34:39;0.93;;;0.52;;
15480;SDS011;7842;50.904;6.670;2023-04-01T05:37:05;0.75;;;0.50;;
15480;SDS011;7842;50.904;6.670;2023-04-01T05:39:35;1.08;;;0.75;;
15480;SDS011;7842;50.904;6.670;2023-04-01T05:42:02;0.98;;;0.60;;
15480;SDS011;7842;50.904;6.670;2023-04-01T05:44:28;0.82;;;0.80;;
15480;SDS011;7842;50.904;6.670;2023-04-01T05:46:54;1.10;;;0.73;;
15480;SDS011;7842;50.904;6.670;2023-04-01T05:49:20;1.20;;;0.60;;
15480;SDS011;7842;50.904;6.670;2023-04-01T05:51:46;0.80;;;0.77;;
15480;SDS011;7842;50.904;6.670;2023-04-01T05:54:12;0.82;;;0.80;;
15480;SDS011;7842;50.904;6.670;2023-04-01T05:56:38;1.20;;;0.73;;
15480;SDS011;7842;50.904;6.670;2023-04-01T05:59:04;1.52;;;0.80;;
15480;SDS011;7842;50.904;6.670;2023-04-01T06:01:29;1.30;;;0.67;;
15480;SDS011;7842;50.904;6.670;2023-04-01T06:03:55;1.33;;;0.80;;
15480;SDS011;7842;50.904;6.670;2023-04-01T06:06:25;0.68;;;0.60;;
15480;SDS011;7842;50.904;6.670;2023-04-01T06:08:53;1.67;;;0.80;;
15480;SDS011;7842;50.904;6.670;2023-04-01T06:24:26;1.77;;;1.30;;
15480;SDS011;7842;50.904;6.670;2023-04-01T06:29:42;1.40;;;1.20;;
15480;SDS011;7842;50.904;6.670;2023-04-01T06:37:14;1.88;;;1.40;;
15480;SDS011;7842;50.904;6.670;2023-04-01T06:44:59;1.70;;;1.40;;
15480;SDS011;7842;50.904;6.670;2023-04-01T06:52:47;1.98;;;1.25;;
15480;SDS011;7842;50.904;6.670;2023-04-01T06:57:58;2.03;;;1.30;;
15480;SDS011;7842;50.904;6.670;2023-04-01T07:00:29;1.58;;;1.17;;
15480;SDS011;7842;50.904;6.670;2023-04-01T07:03:14;1.60;;;1.30;;
15480;SDS011;7842;50.904;6.670;2023-04-01T07:05:42;2.30;;;1.27;;
15480;SDS011;7842;50.904;6.670;2023-04-01T07:08:10;1.80;;;1.17;;
15480;SDS011;7842;50.904;6.670;2023-04-01T07:13:39;1.60;;;1.20;;
15480;SDS011;7842;50.904;6.670;2023-04-01T07:16:19;1.70;;;1.40;;
15480;SDS011;7842;50.904;6.670;2023-04-01T07:18:50;2.33;;;1.60;;
15480;SDS011;7842;50.904;6.670;2023-04-01T07:23:59;2.40;;;1.50;;
15480;SDS011;7842;50.904;6.670;2023-04-01T07:26:26;1.63;;;1.30;;
15480;SDS011;7842;50.904;6.670;2023-04-01T07:28:53;2.47;;;1.15;;
15480;SDS011;7842;50.904;6.670;2023-04-01T07:49:26;1.77;;;1.20;;
15480;SDS011;7842;50.904;6.670;2023-04-01T07:57:03;1.65;;;1.30;;
15480;SDS011;7842;50.904;6.670;2023-04-01T07:59:44;1.10;;;1.00;;
15480;SDS011;7842;50.904;6.670;2023-04-01T08:20:38;1.25;;;0.90;;
15480;SDS011;7842;50.904;6.670;2023-04-01T08:25:45;1.40;;;1.02;;
15480;SDS011;7842;50.904;6.670;2023-04-01T08:28:15;1.73;;;1.10;;
15480;SDS011;7842;50.904;6.670;2023-04-01T08:30:47;1.00;;;0.90;;
15480;SDS011;7842;50.904;6.670;2023-04-01T08:36:06;1.10;;;1.00;;
15480;SDS011;7842;50.904;6.670;2023-04-01T08:38:44;0.60;;;0.60;;
15480;SDS011;7842;50.904;6.670;2023-04-01T08:41:15;2.15;;;1.30;;
15480;SDS011;7842;50.904;6.670;2023-04-01T08:48:48;2.33;;;1.80;;
15480;SDS011;7842;50.904;6.670;2023-04-01T08:51:43;1.40;;;1.10;;
15480;SDS011;7842;50.904;6.670;2023-04-01T08:56:41;0.90;;;0.90;;
15480;SDS011;7842;50.904;6.670;2023-04-01T09:15:23;1.52;;;1.00;;
15480;SDS011;7842;50.904;6.670;2023-04-01T09:21:04;2.15;;;1.30;;
15480;SDS011;7842;50.904;6.670;2023-04-01T09:26:53;1.13;;;1.02;;
15480;SDS011;7842;50.904;6.670;2023-04-01T09:32:26;1.15;;;0.90;;
15480;SDS011;7842;50.904;6.670;2023-04-01T09:35:10;1.10;;;1.00;;
15480;SDS011;7842;50.904;6.670;2023-04-01T09:37:50;1.30;;;1.20;;
15480;SDS011;7842;50.904;6.670;2023-04-01T09:48:09;2.30;;;2.05;;
15480;SDS011;7842;50.904;6.670;2023-04-01T10:05:29;1.20;;;1.10;;
15480;SDS011;7842;50.904;6.670;2023-04-01T10:10:54;1.38;;;1.23;;
15480;SDS011;7842;50.904;6.670;2023-04-01T10:13:33;1.30;;;1.07;;
15480;SDS011;7842;50.904;6.670;2023-04-01T10:16:58;1.33;;;1.02;;
15480;SDS011;7842;50.904;6.670;2023-04-01T10:19:39;1.38;;;1.05;;
15480;SDS011;7842;50.904;6.670;2023-04-01T10:44:59;1.27;;;0.90;;
15480;SDS011;7842;50.904;6.670;2023-04-01T10:52:28;1.90;;;1.50;;
15480;SDS011;7842;50.904;6.670;2023-04-01T11:06:51;1.85;;;1.75;;
15480;SDS011;7842;50.904;6.670;2023-04-01T11:10:03;1.50;;;1.30;;
15480;SDS011;7842;50.904;6.670;2023-04-01T11:31:03;1.50;;;1.17;;
15480;SDS011;7842;50.904;6.670;2023-04-01T11:36:37;1.48;;;1.38;;
15480;SDS011;7842;50.904;6.670;2023-04-01T11:42:06;1.70;;;1.60;;
15480;SDS011;7842;50.904;6.670;2023-04-01T11:44:39;1.90;;;1.80;;
15480;SDS011;7842;50.904;6.670;2023-04-01T11:58:23;2.60;;;2.40;;
15480;SDS011;7842;50.904;6.670;2023-04-01T12:08:50;1.40;;;1.30;;
15480;SDS011;7842;50.904;6.670;2023-04-01T12:11:25;1.42;;;1.20;;
15480;SDS011;7842;50.904;6.670;2023-04-01T12:26:26;1.38;;;1.17;;
15480;SDS011;7842;50.904;6.670;2023-04-01T12:45:40;2.08;;;1.98;;
15480;SDS011;7842;50.904;6.670;2023-04-01T12:53:35;1.80;;;1.70;;
15480;SDS011;7842;50.904;6.670;2023-04-01T12:56:07;2.08;;;1.90;;
15480;SDS011;7842;50.904;6.670;2023-04-01T12:58:42;1.97;;;1.87;;
15480;SDS011;7842;50.904;6.670;2023-04-01T13:04:02;1.88;;;1.77;;
15480;SDS011;7842;50.904;6.670;2023-04-01T13:06:49;1.67;;;1.57;;
15480;SDS011;7842;50.904;6.670;2023-04-01T13:27:56;2.70;;;2.50;;
15480;SDS011;7842;50.904;6.670;2023-04-01T13:35:21;4.22;;;3.40;;
15480;SDS011;7842;50.904;6.670;2023-04-01T13:43:15;14.57;;;9.63;;
15480;SDS011;7842;50.904;6.670;2023-04-01T13:55:53;3.78;;;3.47;;
15480;SDS011;7842;50.904;6.670;2023-04-01T13:58:23;2.60;;;2.40;;
15480;SDS011;7842;50.904;6.670;2023-04-01T14:01:15;2.63;;;2.40;;
15480;SDS011;7842;50.904;6.670;2023-04-01T14:22:28;2.28;;;2.08;;
15480;SDS011;7842;50.904;6.670;2023-04-01T14:31:04;2.30;;;2.10;;
15480;SDS011;7842;50.904;6.670;2023-04-01T14:33:12;2.30;;;2.10;;
15480;SDS011;7842;50.904;6.670;2023-04-01T14:35:46;2.55;;;2.17;;
15480;SDS011;7842;50.904;6.670;2023-04-01T14:43:32;2.75;;;2.00;;
15480;SDS011;7842;50.904;6.670;2023-04-01T14:48:59;2.30;;;2.10;;
15480;SDS011;7842;50.904;6.670;2023-04-01T14:51:33;2.35;;;2.15;;
15480;SDS011;7842;50.904;6.670;2023-04-01T14:56:48;2.03;;;1.92;;
15480;SDS011;7842;50.904;6.670;2023-04-01T14:59:30;2.28;;;2.08;;
15480;SDS011;7842;50.904;6.670;2023-04-01T15:04:56;3.90;;;3.60;;
15480;SDS011;7842;50.904;6.670;2023-04-01T15:13:10;3.58;;;3.20;;
15480;SDS011;7842;50.904;6.670;2023-04-01T15:31:15;6.57;;;5.97;;
15480;SDS011;7842;50.904;6.670;2023-04-01T15:33:53;4.85;;;4.35;;
15480;SDS011;7842;50.904;6.670;2023-04-01T15:38:57;3.40;;;3.10;;
15480;SDS011;7842;50.904;6.670;2023-04-01T15:44:24;3.22;;;2.92;;
15480;SDS011;7842;50.904;6.670;2023-04-01T15:46:51;3.53;;;3.10;;
15480;SDS011;7842;50.904;6.670;2023-04-01T15:57:06;3.97;;;3.58;;
15480;SDS011;7842;50.904;6.670;2023-04-01T16:07:26;3.93;;;3.63;;
15480;SDS011;7842;50.904;6.670;2023-04-01T16:24:22;4.78;;;3.58;;
15480;SDS011;7842;50.904;6.670;2023-04-01T16:29:41;3.55;;;2.90;;
15480;SDS011;7842;50.904;6.670;2023-04-01T16:32:37;3.30;;;3.00;;
15480;SDS011;7842;50.904;6.670;2023-04-01T16:38:24;3.93;;;3.57;;
15480;SDS011;7842;50.904;6.670;2023-04-01T16:40:52;2.97;;;2.78;;
15480;SDS011;7842;50.904;6.670;2023-04-01T16:43:26;3.55;;;2.90;;
15480;SDS011;7842;50.904;6.670;2023-04-01T16:56:56;3.13;;;2.57;;
15480;SDS011;7842;50.904;6.670;2023-04-01T17:02:07;3.25;;;3.00;;
15480;SDS011;7842;50.904;6.670;2023-04-01T17:04:43;4.80;;;3.87;;
15480;SDS011;7842;50.904;6.670;2023-04-01T17:09:55;2.97;;;2.78;;
15480;SDS011;7842;50.904;6.670;2023-04-01T17:15:17;4.20;;;3.10;;
15480;SDS011;7842;50.904;6.670;2023-04-01T17:17:47;2.85;;;2.63;;
15480;SDS011;7842;50.904;6.670;2023-04-01T17:20:26;3.15;;;2.85;;
15480;SDS011;7842;50.904;6.670;2023-04-01T17:22:59;3.00;;;2.70;;
15480;SDS011;7842;50.904;6.670;2023-04-01T17:30:56;3.75;;;3.10;;
15480;SDS011;7842;50.904;6.670;2023-04-01T17:34:03;3.88;;;3.25;;
15480;SDS011;7842;50.904;6.670;2023-04-01T17:36:42;3.70;;;3.30;;
15480;SDS011;7842;50.904;6.670;2023-04-01T17:49:23;5.05;;;4.40;;
15480;SDS011;7842;50.904;6.670;2023-04-01T17:51:58;5.00;;;4.50;;
15480;SDS011;7842;50.904;6.670;2023-04-01T17:54:45;4.80;;;4.30;;
15480;SDS011;7842;50.904;6.670;2023-04-01T18:00:03;6.22;;;4.78;;
15480;SDS011;7842;50.904;6.670;2023-04-01T18:11:15;3.80;;;3.40;;
15480;SDS011;7842;50.904;6.670;2023-04-01T18:14:10;3.30;;;3.00;;
15480;SDS011;7842;50.904;6.670;2023-04-01T18:22:23;3.30;;;3.00;;
15480;SDS011;7842;50.904;6.670;2023-04-01T18:28:11;3.17;;;2.97;;
15480;SDS011;7842;50.904;6.670;2023-04-01T18:30:37;3.30;;;3.10;;
15480;SDS011;7842;50.904;6.670;2023-04-01T18:33:26;3.85;;;3.55;;
15480;SDS011;7842;50.904;6.670;2023-04-01T18:36:03;4.05;;;3.67;;
15480;SDS011;7842;50.904;6.670;2023-04-01T18:38:35;4.55;;;3.60;;
15480;SDS011;7842;50.904;6.670;2023-04-01T18:57:27;5.13;;;4.60;;
15480;SDS011;7842;50.904;6.670;2023-04-01T19:00:28;5.05;;;4.38;;
15480;SDS011;7842;50.904;6.670;2023-04-01T19:03:02;4.53;;;4.13;;
15480;SDS011;7842;50.904;6.670;2023-04-01T19:05:36;4.40;;;3.88;;
15480;SDS011;7842;50.904;6.670;2023-04-01T19:08:27;4.63;;;4.13;;
15480;SDS011;7842;50.904;6.670;2023-04-01T19:21:19;4.20;;;3.80;;
15480;SDS011;7842;50.904;6.670;2023-04-01T19:23:57;4.38;;;3.92;;
15480;SDS011;7842;50.904;6.670;2023-04-01T19:26:31;4.53;;;4.13;;
15480;SDS011;7842;50.904;6.670;2023-04-01T19:34:14;5.35;;;4.85;;
15480;SDS011;7842;50.904;6.670;2023-04-01T19:36:52;5.35;;;4.85;;
15480;SDS011;7842;50.904;6.670;2023-04-01T19:39:30;5.85;;;5.00;;
15480;SDS011;7842;50.904;6.670;2023-04-01T19:53:33;6.20;;;5.60;;
15480;SDS011;7842;50.904;6.670;2023-04-01T19:56:30;6.47;;;5.88;;
15480;SDS011;7842;50.904;6.670;2023-04-01T20:05:02;9.10;;;6.63;;
15480;SDS011;7842;50.904;6.670;2023-04-01T20:09:41;6.65;;;6.05;;
15480;SDS011;7842;50.904;6.670;2023-04-01T20:18:01;6.15;;;5.40;;
15480;SDS011;7842;50.904;6.670;2023-04-01T20:20:56;5.00;;;4.50;;
15480;SDS011;7842;50.904;6.670;2023-04-01T20:23:34;4.32;;;3.92;;
15480;SDS011;7842;50.904;6.670;2023-04-01T20:26:08;4.40;;;4.00;;
15480;SDS011;7842;50.904;6.670;2023-04-01T20:28:37;2.70;;;2.50;;
15480;SDS011;7842;50.904;6.670;2023-04-01T20:41:30;2.45;;;2.25;;
15480;SDS011;7842;50.904;6.670;2023-04-01T20:44:11;2.10;;;1.88;;
15480;SDS011;7842;50.904;6.670;2023-04-01T20:57:35;3.10;;;2.90;;
15480;SDS011;7842;50.904;6.670;2023-04-01T21:00:19;3.10;;;2.80;;
15480;SDS011;7842;50.904;6.670;2023-04-01T21:03:03;3.45;;;3.15;;
15480;SDS011;7842;50.904;6.670;2023-04-01T21:15:59;4.10;;;3.75;;
15480;SDS011;7842;50.904;6.670;2023-04-01T21:21:30;5.30;;;3.70;;
15480;SDS011;7842;50.904;6.670;2023-04-01T21:26:47;4.10;;;3.70;;
15480;SDS011;7842;50.904;6.670;2023-04-01T21:32:14;4.25;;;3.85;;
15480;SDS011;7842;50.904;6.670;2023-04-01T21:34:58;4.35;;;3.95;;
15480;SDS011;7842;50.904;6.670;2023-04-01T21:37:40;4.40;;;4.00;;
15480;SDS011;7842;50.904;6.670;2023-04-01T22:07:14;5.60;;;5.10;;
15480;SDS011;7842;50.904;6.670;2023-04-01T22:12:48;7.93;;;7.13;;
15480;SDS011;7842;50.904;6.670;2023-04-01T22:20:57;9.68;;;8.77;;
15480;SDS011;7842;50.904;6.670;2023-04-01T22:23:31;11.13;;;10.02;;
15480;SDS011;7842;50.904;6.670;2023-04-01T22:28:37;13.07;;;11.70;;
15480;SDS011;7842;50.904;6.670;2023-04-01T22:31:26;13.60;;;12.07;;
15480;SDS011;7842;50.904;6.670;2023-04-01T22:34:07;8.60;;;7.78;;
15480;SDS011;7842;50.904;6.670;2023-04-01T22:39:51;6.05;;;5.45;;
15480;SDS011;7842;50.904;6.670;2023-04-01T22:42:42;6.18;;;5.57;;
15480;SDS011;7842;50.904;6.670;2023-04-01T22:53:17;4.30;;;3.90;;
15480;SDS011;7842;50.904;6.670;2023-04-01T22:56:05;3.97;;;3.67;;
15480;SDS011;7842;50.904;6.670;2023-04-01T22:58:34;4.20;;;3.85;;
15480;SDS011;7842;50.904;6.670;2023-04-01T23:01:06;4.10;;;3.80;;
15480;SDS011;7842;50.904;6.670;2023-04-01T23:03:34;8.63;;;7.73;;
15480;SDS011;7842;50.904;6.670;2023-04-01T23:06:04;11.82;;;10.65;;
15480;SDS011;7842;50.904;6.670;2023-04-01T23:11:17;8.23;;;7.43;;
15480;SDS011;7842;50.904;6.670;2023-04-01T23:13:45;5.60;;;5.10;;
15480;SDS011;7842;50.904;6.670;2023-04-01T23:16:13;6.22;;;5.63;;
15480;SDS011;7842;50.904;6.670;2023-04-01T23:18:55;7.55;;;6.75;;
15480;SDS011;7842;50.904;6.670;2023-04-01T23:21:29;11.13;;;9.52;;
15480;SDS011;7842;50.904;6.670;2023-04-01T23:26:59;13.60;;;12.20;;
15480;SDS011;7842;50.904;6.670;2023-04-01T23:32:03;13.73;;;12.23;;
15480;SDS011;7842;50.904;6.670;2023-04-01T23:34:33;11.65;;;10.45;;
15480;SDS011;7842;50.904;6.670;2023-04-01T23:37:12;12.50;;;11.30;;
15480;SDS011;7842;50.904;6.670;2023-04-01T23:39:56;12.98;;;11.70;;
15480;SDS011;7842;50.904;6.670;2023-04-01T23:42:23;14.35;;;12.85;;
15480;SDS011;7842;50.904;6.670;2023-04-01T23:44:52;13.38;;;11.98;;
15480;SDS011;7842;50.904;6.670;2023-04-01T23:47:22;14.27;;;12.77;;
15480;SDS011;7842;50.904;6.670;2023-04-01T23:49:57;14.10;;;12.60;;
15480;SDS011;7842;50.904;6.670;2023-04-01T23:52:25;13.15;;;11.75;;
15480;SDS011;7842;50.904;6.670;2023-04-01T23:57:21;14.18;;;12.77;;
